Time;durP1;ratioP1;P1;durP2;ratioP2;P2;SDS_P1;SDS_P2;PMS_P1;PMS_P2;Temp;Humidity;BMP_temperature;BMP_pressure;BME280_temperature;BME280_humidity;BME280_pressure;Samples;Min_cycle;Max_cycle;Signal;HPM_P1;HPM_P2
2023/10/28 00:00:26;;;;;;;3.42;1.98;;;;;;;;;;4996031;28;20026;-75
2023/10/28 00:02:51;;;;;;;4.50;2.03;;;;;;;;;;4978573;28;20033;-75
2023/10/28 00:05:16;;;;;;;3.22;1.90;;;;;;;;;;4995788;28;20030;-75
2023/10/28 00:07:42;;;;;;;4.82;1.92;;;;;;;;;;4995813;28;20045;-76
2023/10/28 00:10:09;;;;;;;3.60;2.10;;;;;;;;;;4978435;28;20109;-76
2023/10/28 00:12:35;;;;;;;3.40;2.10;;;;;;;;;;4996267;28;20034;-75
2023/10/28 00:15:00;;;;;;;3.17;2.20;;;;;;;;;;4995728;28;20112;-76
2023/10/28 00:17:25;;;;;;;3.35;2.10;;;;;;;;;;4995668;28;20113;-76
2023/10/28 00:19:50;;;;;;;3.67;2.00;;;;;;;;;;4995619;28;20169;-73
2023/10/28 00:22:17;;;;;;;5.25;2.50;;;;;;;;;;4978532;28;20499;-77
2023/10/28 00:24:42;;;;;;;4.60;1.98;;;;;;;;;;4993867;28;20080;-76
2023/10/28 00:27:09;;;;;;;3.38;2.20;;;;;;;;;;4993365;28;20026;-76
2023/10/28 00:29:34;;;;;;;3.72;2.28;;;;;;;;;;4992333;28;20049;-76
2023/10/28 00:32:00;;;;;;;3.00;2.08;;;;;;;;;;4992783;28;20124;-76
2023/10/28 00:34:25;;;;;;;5.43;2.25;;;;;;;;;;4975562;28;20623;-76
2023/10/28 00:36:51;;;;;;;4.30;2.35;;;;;;;;;;4993137;28;20034;-75
2023/10/28 00:39:16;;;;;;;2.90;1.90;;;;;;;;;;4994884;28;20024;-76
2023/10/28 00:41:43;;;;;;;4.05;2.20;;;;;;;;;;4994132;28;20026;-76
2023/10/28 00:44:09;;;;;;;3.15;2.20;;;;;;;;;;4995388;28;20026;-75
2023/10/28 00:46:34;;;;;;;3.10;2.00;;;;;;;;;;4995103;28;20516;-75
2023/10/28 00:49:00;;;;;;;3.00;1.85;;;;;;;;;;4977638;28;20060;-75
2023/10/28 00:51:25;;;;;;;8.23;2.22;;;;;;;;;;4995279;28;20022;-75
2023/10/28 00:53:51;;;;;;;2.47;1.90;;;;;;;;;;4995033;28;20038;-76
2023/10/28 00:56:18;;;;;;;4.03;2.22;;;;;;;;;;4994870;28;20114;-75
2023/10/28 00:58:45;;;;;;;4.20;1.83;;;;;;;;;;4995427;28;20105;-75
2023/10/28 01:01:13;;;;;;;3.55;2.00;;;;;;;;;;4994929;28;20034;-75
2023/10/28 01:03:40;;;;;;;3.58;1.70;;;;;;;;;;4994700;28;20108;-75
2023/10/28 01:06:09;;;;;;;2.10;1.70;;;;;;;;;;4994569;28;20018;-74
2023/10/28 01:08:35;;;;;;;3.10;1.90;;;;;;;;;;4977587;28;20089;-74
2023/10/28 01:11:03;;;;;;;3.85;1.63;;;;;;;;;;4994622;28;20030;-75
2023/10/28 01:13:29;;;;;;;2.90;1.92;;;;;;;;;;4994581;28;20029;-76
2023/10/28 01:15:55;;;;;;;4.75;2.00;;;;;;;;;;4994425;28;20018;-75
2023/10/28 01:18:20;;;;;;;3.35;1.80;;;;;;;;;;4977148;28;20022;-76
2023/10/28 01:20:46;;;;;;;2.45;1.70;;;;;;;;;;4995008;28;20093;-75
2023/10/28 01:23:11;;;;;;;2.22;1.60;;;;;;;;;;4994562;28;20509;-75
2023/10/28 01:25:37;;;;;;;4.80;1.98;;;;;;;;;;4994356;28;20029;-75
2023/10/28 01:28:02;;;;;;;2.83;1.80;;;;;;;;;;4994610;28;20117;-76
2023/10/28 01:30:27;;;;;;;2.90;1.70;;;;;;;;;;4994305;28;20022;-75
2023/10/28 01:32:53;;;;;;;2.22;1.60;;;;;;;;;;4994251;28;20050;-74
2023/10/28 01:35:18;;;;;;;2.28;1.73;;;;;;;;;;4976833;28;20033;-76
2023/10/28 01:37:43;;;;;;;3.38;1.35;;;;;;;;;;4994555;28;20026;-76
2023/10/28 01:40:16;;;;;;;1.70;1.33;;;;;;;;;;4994535;28;20081;-76
2023/10/28 01:42:44;;;;;;;2.92;1.50;;;;;;;;;;4994374;28;20026;-75
2023/10/28 01:45:10;;;;;;;5.10;1.42;;;;;;;;;;4976587;28;20026;-75
2023/10/28 01:47:39;;;;;;;2.75;1.63;;;;;;;;;;4993932;28;20026;-75
2023/10/28 01:50:08;;;;;;;1.83;1.30;;;;;;;;;;4994394;28;20028;-75
2023/10/28 01:52:34;;;;;;;4.28;1.30;;;;;;;;;;4976494;28;20059;-75
2023/10/28 01:54:59;;;;;;;2.13;1.27;;;;;;;;;;4976548;28;20026;-76
2023/10/28 01:57:24;;;;;;;2.00;1.38;;;;;;;;;;4993786;28;20030;-76
2023/10/28 01:59:50;;;;;;;2.25;1.20;;;;;;;;;;4993883;28;20034;-75
2023/10/28 02:02:16;;;;;;;2.88;1.35;;;;;;;;;;4993738;28;20033;-75
2023/10/28 02:04:41;;;;;;;3.40;1.50;;;;;;;;;;4994151;28;20105;-75
2023/10/28 02:07:07;;;;;;;6.65;1.55;;;;;;;;;;4993849;28;20516;-75
2023/10/28 02:09:35;;;;;;;2.15;1.20;;;;;;;;;;4993679;28;20026;-76
2023/10/28 02:12:02;;;;;;;2.65;1.35;;;;;;;;;;4976491;28;20402;-75
2023/10/28 02:14:27;;;;;;;2.83;1.48;;;;;;;;;;4976341;28;20119;-75
2023/10/28 02:16:54;;;;;;;2.15;1.35;;;;;;;;;;4993618;28;20061;-76
2023/10/28 02:19:20;;;;;;;3.53;1.40;;;;;;;;;;4993652;28;20433;-75
2023/10/28 02:21:45;;;;;;;4.43;1.27;;;;;;;;;;4993566;28;20477;-75
2023/10/28 02:24:11;;;;;;;3.95;1.33;;;;;;;;;;4993570;28;20038;-75
2023/10/28 02:26:36;;;;;;;2.08;1.25;;;;;;;;;;4993566;28;20143;-75
2023/10/28 02:29:01;;;;;;;7.15;1.55;;;;;;;;;;4993550;28;20044;-75
2023/10/28 02:31:28;;;;;;;3.38;1.20;;;;;;;;;;4993900;28;20034;-75
2023/10/28 02:33:53;;;;;;;2.35;1.38;;;;;;;;;;4993531;28;20034;-75
2023/10/28 02:36:18;;;;;;;5.43;1.35;;;;;;;;;;4993754;28;20527;-75
2023/10/28 02:38:44;;;;;;;1.10;1.00;;;;;;;;;;4993454;28;20026;-75
2023/10/28 02:41:09;;;;;;;1.52;1.10;;;;;;;;;;4976037;28;20018;-75
2023/10/28 02:43:35;;;;;;;3.83;1.00;;;;;;;;;;4975916;28;20022;-75
2023/10/28 02:46:01;;;;;;;4.00;1.20;;;;;;;;;;4993324;28;20022;-75
2023/10/28 02:48:27;;;;;;;4.80;1.15;;;;;;;;;;4975938;28;20022;-75
2023/10/28 02:50:52;;;;;;;1.52;0.90;;;;;;;;;;4975956;28;20027;-75
2023/10/28 02:53:18;;;;;;;2.03;1.08;;;;;;;;;;4975826;28;20030;-75
2023/10/28 02:55:43;;;;;;;2.42;1.10;;;;;;;;;;4993336;28;20026;-75
2023/10/28 02:58:08;;;;;;;0.90;0.90;;;;;;;;;;4993771;28;20019;-75
2023/10/28 03:00:33;;;;;;;2.38;1.20;;;;;;;;;;4997364;28;20585;-75
2023/10/28 03:02:59;;;;;;;1.35;0.90;;;;;;;;;;4979522;28;20037;-75
2023/10/28 03:05:24;;;;;;;1.30;1.00;;;;;;;;;;4996959;28;20073;-75
2023/10/28 03:07:50;;;;;;;2.72;1.10;;;;;;;;;;4996623;28;20378;-76
2023/10/28 03:10:16;;;;;;;4.13;1.10;;;;;;;;;;4995868;28;20030;-75
2023/10/28 03:12:41;;;;;;;1.83;1.00;;;;;;;;;;4977863;28;20377;-75
2023/10/28 03:15:09;;;;;;;2.05;1.30;;;;;;;;;;4996709;28;20023;-74
2023/10/28 03:17:34;;;;;;;1.40;1.10;;;;;;;;;;4979647;28;20105;-74
2023/10/28 03:19:59;;;;;;;1.20;0.90;;;;;;;;;;4996993;28;20433;-74
2023/10/28 03:22:25;;;;;;;1.95;1.10;;;;;;;;;;4978368;28;20018;-74
2023/10/28 03:24:51;;;;;;;2.40;1.10;;;;;;;;;;4996887;28;20105;-74
2023/10/28 03:27:16;;;;;;;3.47;1.10;;;;;;;;;;4996600;28;20057;-74
2023/10/28 03:29:42;;;;;;;2.35;1.13;;;;;;;;;;4996601;28;20056;-74
2023/10/28 03:32:07;;;;;;;1.13;0.90;;;;;;;;;;4996488;28;20033;-74
2023/10/28 03:34:32;;;;;;;1.40;0.95;;;;;;;;;;4996491;28;20026;-75
2023/10/28 03:36:58;;;;;;;1.77;0.93;;;;;;;;;;4996413;28;20432;-75
2023/10/28 03:39:23;;;;;;;3.15;1.10;;;;;;;;;;4996644;28;20033;-76
2023/10/28 03:41:49;;;;;;;4.22;1.85;;;;;;;;;;4996248;28;20055;-76
2023/10/28 03:44:14;;;;;;;6.00;1.65;;;;;;;;;;4978760;28;20026;-76
2023/10/28 03:46:40;;;;;;;3.88;1.55;;;;;;;;;;4996157;28;20030;-76
2023/10/28 03:49:05;;;;;;;2.70;1.92;;;;;;;;;;4996207;28;20022;-76
2023/10/28 03:51:30;;;;;;;5.45;1.70;;;;;;;;;;4977877;28;20030;-75
2023/10/28 03:53:55;;;;;;;2.60;1.40;;;;;;;;;;4976902;28;20470;-76
2023/10/28 03:56:21;;;;;;;3.25;1.75;;;;;;;;;;4976643;28;20430;-76
2023/10/28 03:58:46;;;;;;;4.40;1.13;;;;;;;;;;4996040;28;20073;-76
2023/10/28 04:01:11;;;;;;;5.75;1.63;;;;;;;;;;4996464;28;20076;-76
2023/10/28 04:03:37;;;;;;;1.98;1.13;;;;;;;;;;4995220;28;20108;-76
2023/10/28 04:06:02;;;;;;;4.00;1.10;;;;;;;;;;4995747;28;20026;-76
2023/10/28 04:08:27;;;;;;;2.55;1.23;;;;;;;;;;4995769;28;20058;-76
2023/10/28 04:10:56;;;;;;;3.95;1.20;;;;;;;;;;4994801;28;20050;-75
2023/10/28 04:13:21;;;;;;;2.08;1.17;;;;;;;;;;4995682;28;20027;-76
2023/10/28 04:15:47;;;;;;;1.77;1.00;;;;;;;;;;4995621;28;20072;-74
2023/10/28 04:18:12;;;;;;;3.00;1.27;;;;;;;;;;4994601;28;20034;-75
2023/10/28 04:20:38;;;;;;;2.75;1.02;;;;;;;;;;4995577;28;20073;-75
2023/10/28 04:23:04;;;;;;;2.67;1.08;;;;;;;;;;4995576;28;20030;-75
2023/10/28 04:25:29;;;;;;;3.60;1.10;;;;;;;;;;4996021;28;20084;-76
2023/10/28 04:27:55;;;;;;;1.85;0.98;;;;;;;;;;4996023;28;20022;-76
2023/10/28 04:30:20;;;;;;;1.85;1.08;;;;;;;;;;4995574;28;20030;-75
2023/10/28 04:32:46;;;;;;;2.33;1.20;;;;;;;;;;4977987;28;20132;-75
2023/10/28 04:35:11;;;;;;;4.47;1.50;;;;;;;;;;4995319;28;20026;-75
2023/10/28 04:37:36;;;;;;;3.58;1.23;;;;;;;;;;4995380;28;20037;-75
2023/10/28 04:40:04;;;;;;;2.72;1.17;;;;;;;;;;4995321;28;20026;-75
2023/10/28 04:42:29;;;;;;;2.28;1.20;;;;;;;;;;4977702;28;20109;-75
2023/10/28 04:44:54;;;;;;;2.70;1.05;;;;;;;;;;4995201;28;20133;-75
2023/10/28 04:47:19;;;;;;;3.60;1.00;;;;;;;;;;4995166;28;20018;-75
2023/10/28 04:49:45;;;;;;;4.78;1.20;;;;;;;;;;4977651;28;20033;-75
2023/10/28 04:52:10;;;;;;;1.10;1.00;;;;;;;;;;4995245;28;20032;-75
2023/10/28 04:54:37;;;;;;;1.10;0.90;;;;;;;;;;4995105;28;20073;-75
2023/10/28 04:57:03;;;;;;;2.05;1.10;;;;;;;;;;4994870;28;20022;-74
2023/10/28 04:59:29;;;;;;;4.32;0.90;;;;;;;;;;4977494;28;20509;-75
2023/10/28 05:01:55;;;;;;;1.92;1.00;;;;;;;;;;4977295;28;20056;-75
2023/10/28 05:04:20;;;;;;;2.17;1.25;;;;;;;;;;4994841;28;20069;-75
2023/10/28 05:06:45;;;;;;;3.53;1.02;;;;;;;;;;4994819;28;20409;-75
2023/10/28 05:09:11;;;;;;;2.20;0.95;;;;;;;;;;4977316;28;20383;-75
2023/10/28 05:11:37;;;;;;;3.03;1.05;;;;;;;;;;4977137;28;20030;-75
2023/10/28 05:14:03;;;;;;;4.50;1.10;;;;;;;;;;4994229;28;20034;-76
2023/10/28 05:16:29;;;;;;;4.35;1.20;;;;;;;;;;4976174;28;20032;-75
2023/10/28 05:18:54;;;;;;;11.52;1.33;;;;;;;;;;4995905;28;20097;-75
2023/10/28 05:21:19;;;;;;;1.88;0.90;;;;;;;;;;4994438;28;20030;-75
2023/10/28 05:23:44;;;;;;;1.92;0.95;;;;;;;;;;4994376;28;20023;-74
2023/10/28 05:26:10;;;;;;;3.50;0.90;;;;;;;;;;4994374;28;20026;-75
2023/10/28 05:28:35;;;;;;;4.93;1.30;;;;;;;;;;4994637;28;20022;-75
2023/10/28 05:31:00;;;;;;;4.20;1.20;;;;;;;;;;4994208;28;20041;-74
2023/10/28 05:33:26;;;;;;;5.13;1.13;;;;;;;;;;4976896;28;20022;-75
2023/10/28 05:35:51;;;;;;;4.97;1.70;;;;;;;;;;4994200;28;20113;-75
2023/10/28 05:38:17;;;;;;;1.80;0.82;;;;;;;;;;4976860;28;20033;-76
2023/10/28 05:40:42;;;;;;;2.25;1.08;;;;;;;;;;4994246;28;20029;-75
2023/10/28 05:43:08;;;;;;;3.60;1.85;;;;;;;;;;4994075;28;20026;-75
2023/10/28 05:45:33;;;;;;;3.20;1.83;;;;;;;;;;4976520;28;20496;-75
2023/10/28 05:47:58;;;;;;;2.55;1.10;;;;;;;;;;4994052;28;20384;-75
2023/10/28 05:50:24;;;;;;;5.03;1.02;;;;;;;;;;4993998;28;20108;-75
2023/10/28 05:52:49;;;;;;;1.70;1.10;;;;;;;;;;4994287;28;20027;-75
2023/10/28 05:55:14;;;;;;;2.40;1.30;;;;;;;;;;4993812;28;20481;-75
2023/10/28 05:57:40;;;;;;;3.20;1.10;;;;;;;;;;4976365;28;20100;-75
2023/10/28 06:00:10;;;;;;;2.28;1.00;;;;;;;;;;4993876;28;20029;-74
2023/10/28 06:02:36;;;;;;;2.45;1.50;;;;;;;;;;4976308;28;20030;-75
2023/10/28 06:05:03;;;;;;;2.55;1.10;;;;;;;;;;4993828;28;20105;-75
2023/10/28 06:07:29;;;;;;;4.43;1.10;;;;;;;;;;4976185;28;20026;-75
2023/10/28 06:09:58;;;;;;;1.73;1.10;;;;;;;;;;4993761;28;20374;-74
2023/10/28 06:12:25;;;;;;;3.53;1.30;;;;;;;;;;4976357;28;20062;-74
2023/10/28 06:14:51;;;;;;;4.72;1.42;;;;;;;;;;4976516;28;20440;-76
2023/10/28 06:17:16;;;;;;;1.38;1.15;;;;;;;;;;4993579;28;20022;-74
2023/10/28 06:19:41;;;;;;;4.68;1.25;;;;;;;;;;4976230;28;20370;-74
2023/10/28 06:22:07;;;;;;;2.55;1.15;;;;;;;;;;4976148;28;20034;-75
2023/10/28 06:24:33;;;;;;;3.28;1.35;;;;;;;;;;4993603;28;20029;-75
2023/10/28 06:26:59;;;;;;;3.80;1.25;;;;;;;;;;4993460;28;20026;-75
2023/10/28 06:29:24;;;;;;;4.05;1.50;;;;;;;;;;4993564;28;20033;-75
2023/10/28 06:31:50;;;;;;;3.20;1.27;;;;;;;;;;4976134;28;20018;-75
2023/10/28 06:34:16;;;;;;;3.85;1.20;;;;;;;;;;4995952;28;20407;-75
2023/10/28 06:36:41;;;;;;;3.22;1.25;;;;;;;;;;4979987;28;20084;-75
2023/10/28 06:39:08;;;;;;;8.27;1.40;;;;;;;;;;4997534;28;20057;-75
2023/10/28 06:41:34;;;;;;;5.88;1.20;;;;;;;;;;4979873;28;20054;-75
2023/10/28 06:44:05;;;;;;;2.75;1.50;;;;;;;;;;4997597;28;20026;-75
2023/10/28 06:46:31;;;;;;;2.85;0.93;;;;;;;;;;4997306;28;20030;-75
2023/10/28 06:48:56;;;;;;;4.80;1.30;;;;;;;;;;4996621;28;20033;-75
2023/10/28 06:51:21;;;;;;;3.75;1.40;;;;;;;;;;4996925;28;20101;-75
2023/10/28 06:53:47;;;;;;;2.78;1.50;;;;;;;;;;4997222;28;20473;-75
2023/10/28 06:56:12;;;;;;;3.85;1.60;;;;;;;;;;4997106;28;20037;-75
2023/10/28 06:58:37;;;;;;;3.58;1.52;;;;;;;;;;4997422;28;20478;-75
2023/10/28 07:01:04;;;;;;;3.95;1.75;;;;;;;;;;4997120;28;20440;-74
2023/10/28 07:03:29;;;;;;;4.82;1.80;;;;;;;;;;4979487;28;20556;-75
2023/10/28 07:05:55;;;;;;;4.38;1.90;;;;;;;;;;4996931;28;20097;-75
2023/10/28 07:08:21;;;;;;;2.65;1.60;;;;;;;;;;4997114;28;20034;-75
2023/10/28 07:10:47;;;;;;;5.10;1.63;;;;;;;;;;4996876;28;20033;-74
2023/10/28 07:13:12;;;;;;;5.32;1.35;;;;;;;;;;4997065;28;20759;-76
2023/10/28 07:15:38;;;;;;;4.55;1.45;;;;;;;;;;4996819;28;20121;-76
2023/10/28 07:18:05;;;;;;;6.45;1.50;;;;;;;;;;4979347;28;20397;-76
2023/10/28 07:20:30;;;;;;;2.28;1.35;;;;;;;;;;4994813;28;20030;-76
2023/10/28 07:22:55;;;;;;;2.13;1.30;;;;;;;;;;4996536;28;20037;-75
2023/10/28 07:25:21;;;;;;;2.25;1.50;;;;;;;;;;4995467;28;20018;-75
2023/10/28 07:27:46;;;;;;;4.18;1.50;;;;;;;;;;4979181;28;20127;-76
2023/10/28 07:30:12;;;;;;;1.70;1.35;;;;;;;;;;4996607;28;20437;-76
2023/10/28 07:32:39;;;;;;;3.22;1.45;;;;;;;;;;4996517;28;20485;-76
2023/10/28 07:35:06;;;;;;;3.65;1.40;;;;;;;;;;4996512;28;20030;-76
2023/10/28 07:37:32;;;;;;;3.25;1.63;;;;;;;;;;4996360;28;20030;-74
2023/10/28 07:39:57;;;;;;;1.98;1.58;;;;;;;;;;4996718;28;20034;-76
2023/10/28 07:42:23;;;;;;;3.47;1.40;;;;;;;;;;4996563;28;20026;-74
2023/10/28 07:44:48;;;;;;;3.13;1.50;;;;;;;;;;4996263;28;20029;-75
2023/10/28 07:47:13;;;;;;;3.22;1.50;;;;;;;;;;4996207;28;20396;-75
2023/10/28 07:49:39;;;;;;;2.70;1.20;;;;;;;;;;4978645;28;20030;-75
2023/10/28 07:52:04;;;;;;;2.40;1.40;;;;;;;;;;4978764;28;20034;-76
2023/10/28 07:54:30;;;;;;;2.60;1.42;;;;;;;;;;4996125;28;20022;-75
2023/10/28 07:56:55;;;;;;;1.55;1.23;;;;;;;;;;4995994;28;20462;-75
2023/10/28 07:59:21;;;;;;;2.40;1.35;;;;;;;;;;4978921;28;20029;-75
2023/10/28 08:01:46;;;;;;;4.00;1.45;;;;;;;;;;4995936;28;20023;-75
2023/10/28 08:04:13;;;;;;;2.63;1.23;;;;;;;;;;4978431;28;20030;-75
2023/10/28 08:06:40;;;;;;;1.60;1.00;;;;;;;;;;4996047;28;20109;-75
2023/10/28 08:09:05;;;;;;;1.38;1.00;;;;;;;;;;4995919;28;20039;-76
2023/10/28 08:11:31;;;;;;;3.70;1.23;;;;;;;;;;4978399;28;20113;-76
2023/10/28 08:13:56;;;;;;;2.75;1.13;;;;;;;;;;4996091;28;20030;-76
2023/10/28 08:16:23;;;;;;;3.05;1.02;;;;;;;;;;4995740;28;20126;-76
2023/10/28 08:18:49;;;;;;;1.27;1.08;;;;;;;;;;4978216;28;20076;-75
2023/10/28 08:21:16;;;;;;;0.95;0.88;;;;;;;;;;4995713;28;20072;-75
2023/10/28 08:23:41;;;;;;;0.50;0.50;;;;;;;;;;4978090;28;20026;-75
2023/10/28 08:26:10;;;;;;;0.75;0.60;;;;;;;;;;4995663;28;20076;-75
2023/10/28 08:28:36;;;;;;;1.00;0.70;;;;;;;;;;4995723;28;20022;-75
2023/10/28 08:31:02;;;;;;;0.60;0.60;;;;;;;;;;4995352;28;20041;-75
2023/10/28 08:33:28;;;;;;;1.85;0.60;;;;;;;;;;4995432;28;20019;-75
2023/10/28 08:35:56;;;;;;;3.05;0.80;;;;;;;;;;4995313;28;20034;-75
2023/10/28 08:38:21;;;;;;;1.20;0.60;;;;;;;;;;4995768;28;20385;-76
2023/10/28 08:40:47;;;;;;;1.33;0.70;;;;;;;;;;4995543;28;20029;-76
2023/10/28 08:43:17;;;;;;;1.02;0.65;;;;;;;;;;4977788;28;20022;-75
2023/10/28 08:45:42;;;;;;;0.88;0.70;;;;;;;;;;4995149;28;20026;-76
2023/10/28 08:48:10;;;;;;;0.88;0.60;;;;;;;;;;4995087;28;20088;-77
2023/10/28 08:50:38;;;;;;;3.05;1.38;;;;;;;;;;4994983;28;20026;-75
2023/10/28 08:53:03;;;;;;;0.57;0.50;;;;;;;;;;4995352;28;20049;-75
2023/10/28 08:55:30;;;;;;;0.60;0.60;;;;;;;;;;4994273;28;20034;-76
2023/10/28 08:57:55;;;;;;;0.50;0.50;;;;;;;;;;4992554;28;20030;-77
2023/10/28 09:00:23;;;;;;;0.50;0.50;;;;;;;;;;4994482;28;20085;-75
2023/10/28 09:02:49;;;;;;;2.65;0.60;;;;;;;;;;4993654;28;20054;-76
2023/10/28 09:05:16;;;;;;;0.52;0.52;;;;;;;;;;4993267;28;20447;-75
2023/10/28 09:07:43;;;;;;;0.40;0.40;;;;;;;;;;4994293;28;20489;-74
2023/10/28 09:10:10;;;;;;;1.13;0.50;;;;;;;;;;4994782;28;20045;-76
2023/10/28 09:12:35;;;;;;;0.70;0.60;;;;;;;;;;4995287;28;20053;-76
2023/10/28 09:15:01;;;;;;;1.80;0.52;;;;;;;;;;4977289;28;20054;-76
2023/10/28 09:17:26;;;;;;;0.63;0.43;;;;;;;;;;4994501;28;20484;-78
2023/10/28 09:19:52;;;;;;;0.45;0.45;;;;;;;;;;4996365;28;20151;-75
2023/10/28 09:22:17;;;;;;;0.45;0.30;;;;;;;;;;4977059;28;20034;-75
2023/10/28 09:24:46;;;;;;;0.52;0.40;;;;;;;;;;4994500;28;20045;-75
2023/10/28 09:27:13;;;;;;;0.20;0.20;;;;;;;;;;4977195;28;20477;-76
2023/10/28 09:29:40;;;;;;;0.45;0.30;;;;;;;;;;4994412;28;20030;-76
2023/10/28 09:32:08;;;;;;;0.93;0.50;;;;;;;;;;4994480;28;20022;-76
2023/10/28 09:34:34;;;;;;;1.08;0.50;;;;;;;;;;4994656;28;20030;-76
2023/10/28 09:37:00;;;;;;;0.60;0.40;;;;;;;;;;4976777;28;20026;-76
2023/10/28 09:39:26;;;;;;;0.75;0.45;;;;;;;;;;4994231;28;20046;-75
2023/10/28 09:41:52;;;;;;;0.32;0.32;;;;;;;;;;4994682;28;20120;-75
2023/10/28 09:44:19;;;;;;;1.73;0.30;;;;;;;;;;4994141;28;20256;-75
2023/10/28 09:46:48;;;;;;;0.20;0.20;;;;;;;;;;4994110;28;20026;-75
2023/10/28 09:49:17;;;;;;;0.40;0.30;;;;;;;;;;4976771;28;20022;-74
2023/10/28 09:51:45;;;;;;;0.40;0.40;;;;;;;;;;4976964;28;20498;-75
2023/10/28 09:54:19;;;;;;;0.55;0.43;;;;;;;;;;4994214;28;20489;-75
2023/10/28 09:56:46;;;;;;;1.15;0.40;;;;;;;;;;4994279;28;20076;-77
2023/10/28 09:59:19;;;;;;;1.02;0.40;;;;;;;;;;4976753;28;20038;-77
2023/10/28 10:02:11;;;;;;;1.30;0.40;;;;;;;;;;4976365;28;20512;-76
2023/10/28 10:04:49;;;;;;;0.28;0.28;;;;;;;;;;4993811;28;20038;-77
2023/10/28 10:07:16;;;;;;;0.40;0.30;;;;;;;;;;4993503;28;20030;-77
2023/10/28 10:09:43;;;;;;;0.40;0.40;;;;;;;;;;4993650;28;20022;-77
2023/10/28 10:12:10;;;;;;;0.40;0.40;;;;;;;;;;4993705;28;20026;-77
2023/10/28 10:14:39;;;;;;;0.65;0.50;;;;;;;;;;4976394;28;20393;-77
2023/10/28 10:17:19;;;;;;;0.50;0.40;;;;;;;;;;4976100;28;20120;-77
2023/10/28 10:19:47;;;;;;;1.58;0.63;;;;;;;;;;4993860;28;20030;-77
2023/10/28 10:22:15;;;;;;;0.55;0.43;;;;;;;;;;4975814;28;20041;-77
2023/10/28 10:24:50;;;;;;;1.55;0.60;;;;;;;;;;4993651;28;20045;-77
2023/10/28 10:27:35;;;;;;;1.17;0.85;;;;;;;;;;4993580;28;20026;-77
2023/10/28 10:30:09;;;;;;;0.47;0.47;;;;;;;;;;4976025;28;20485;-77
2023/10/28 10:32:41;;;;;;;;;;;;;;;;;;4976351;28;20030;-77
2023/10/28 10:35:30;;;;;;;1.42;0.52;;;;;;;;;;4993681;28;19932;-77
2023/10/28 10:38:04;;;;;;;0.57;0.38;;;;;;;;;;4975927;28;20026;-77
2023/10/28 10:40:32;;;;;;;2.22;0.60;;;;;;;;;;4976663;28;20470;-77
2023/10/28 10:43:06;;;;;;;0.50;0.50;;;;;;;;;;4994971;28;20069;-78
2023/10/28 10:45:34;;;;;;;1.40;0.63;;;;;;;;;;4999105;28;20033;-78
2023/10/28 10:48:01;;;;;;;1.00;0.65;;;;;;;;;;4976907;28;20026;-77
2023/10/28 10:50:26;;;;;;;0.60;0.40;;;;;;;;;;4976387;28;20022;-77
2023/10/28 10:52:52;;;;;;;1.48;0.60;;;;;;;;;;4976392;28;20024;-77
2023/10/28 10:55:24;;;;;;;1.55;0.70;;;;;;;;;;4993614;28;20030;-77
2023/10/28 10:57:50;;;;;;;1.02;0.60;;;;;;;;;;4976216;28;20057;-77
2023/10/28 11:00:16;;;;;;;1.60;0.60;;;;;;;;;;4976429;28;20037;-77
2023/10/28 11:02:42;;;;;;;1.33;0.60;;;;;;;;;;4993559;28;20026;-77
2023/10/28 11:05:09;;;;;;;6.00;0.70;;;;;;;;;;4976635;28;20034;-80
2023/10/28 11:07:35;;;;;;;1.95;0.60;;;;;;;;;;4997388;28;20485;-78
2023/10/28 11:10:04;;;;;;;0.60;0.57;;;;;;;;;;4999431;28;20041;-78
2023/10/28 11:12:29;;;;;;;1.40;0.52;;;;;;;;;;4998946;28;20029;-78
2023/10/28 11:14:55;;;;;;;1.35;0.60;;;;;;;;;;4998283;28;20031;-77
2023/10/28 11:17:20;;;;;;;0.65;0.60;;;;;;;;;;4998188;28;20022;-77
2023/10/28 11:19:48;;;;;;;1.73;0.60;;;;;;;;;;4996800;28;20026;-77
2023/10/28 11:22:15;;;;;;;1.05;0.55;;;;;;;;;;4979862;28;20054;-77
2023/10/28 11:24:41;;;;;;;0.52;0.50;;;;;;;;;;4997757;28;20033;-78
2023/10/28 11:27:07;;;;;;;2.53;0.60;;;;;;;;;;4996808;28;20109;-77
2023/10/28 11:29:35;;;;;;;0.70;0.50;;;;;;;;;;4979671;28;20077;-77
2023/10/28 11:32:05;;;;;;;1.23;0.68;;;;;;;;;;4980181;28;20018;-77
2023/10/28 11:34:35;;;;;;;1.67;0.63;;;;;;;;;;4998260;28;20029;-78
2023/10/28 11:37:01;;;;;;;0.90;0.30;;;;;;;;;;4981782;28;20378;-78
2023/10/28 11:39:28;;;;;;;0.85;0.47;;;;;;;;;;5000424;28;20037;-78
2023/10/28 11:41:55;;;;;;;1.30;0.60;;;;;;;;;;5000705;28;20030;-78
2023/10/28 11:44:25;;;;;;;2.47;0.50;;;;;;;;;;5000149;28;20023;-78
2023/10/28 11:46:50;;;;;;;2.10;0.50;;;;;;;;;;5001815;28;20037;-78
2023/10/28 11:49:15;;;;;;;0.97;0.60;;;;;;;;;;5002685;28;20030;-79
2023/10/28 11:51:40;;;;;;;1.15;0.40;;;;;;;;;;5003359;28;20316;-80
2023/10/28 11:54:06;;;;;;;0.95;0.55;;;;;;;;;;5000894;28;20034;-75
2023/10/28 11:56:34;;;;;;;0.82;0.50;;;;;;;;;;4998717;28;20038;-77
2023/10/28 11:58:59;;;;;;;1.77;0.50;;;;;;;;;;4997871;28;20394;-79
2023/10/28 12:01:26;;;;;;;1.40;0.40;;;;;;;;;;4998626;28;20030;-78
2023/10/28 12:03:51;;;;;;;0.65;0.38;;;;;;;;;;4998491;28;20284;-78
2023/10/28 12:06:16;;;;;;;0.28;0.28;;;;;;;;;;4994942;28;20030;-78
2023/10/28 12:08:42;;;;;;;0.52;0.40;;;;;;;;;;4996130;28;20187;-78
2023/10/28 12:11:07;;;;;;;1.60;0.40;;;;;;;;;;4996949;28;20034;-78
2023/10/28 12:13:34;;;;;;;0.30;0.30;;;;;;;;;;4997018;28;20256;-77
2023/10/28 12:15:59;;;;;;;0.40;0.40;;;;;;;;;;4979820;28;20022;-77
2023/10/28 12:18:25;;;;;;;0.82;0.47;;;;;;;;;;4983898;28;20121;-80
2023/10/28 12:20:50;;;;;;;0.73;0.40;;;;;;;;;;5005412;28;20394;-80
2023/10/28 12:23:16;;;;;;;1.00;0.30;;;;;;;;;;4977693;28;20027;-78
2023/10/28 12:25:42;;;;;;;0.93;0.55;;;;;;;;;;4993516;28;20026;-78
2023/10/28 12:28:07;;;;;;;0.43;0.40;;;;;;;;;;4994142;28;20085;-76
2023/10/28 12:30:33;;;;;;;0.65;0.50;;;;;;;;;;4993901;28;20026;-77
2023/10/28 12:32:58;;;;;;;1.98;0.50;;;;;;;;;;4995117;28;20342;-77
2023/10/28 12:35:23;;;;;;;1.08;0.50;;;;;;;;;;4995585;28;20022;-77
2023/10/28 12:37:49;;;;;;;3.17;0.73;;;;;;;;;;4995658;28;20474;-77
2023/10/28 12:40:14;;;;;;;2.83;0.55;;;;;;;;;;4995466;28;20026;-77
2023/10/28 12:42:39;;;;;;;1.42;0.40;;;;;;;;;;4995597;28;20033;-77
2023/10/28 12:45:06;;;;;;;1.80;0.40;;;;;;;;;;4996114;28;20577;-77
2023/10/28 12:47:33;;;;;;;0.95;0.50;;;;;;;;;;4996357;28;20073;-77
2023/10/28 12:50:03;;;;;;;0.57;0.50;;;;;;;;;;5004911;28;20049;-79
2023/10/28 12:52:32;;;;;;;1.10;0.50;;;;;;;;;;5007825;28;20023;-79
2023/10/28 12:55:02;;;;;;;0.73;0.40;;;;;;;;;;4989361;28;20049;-80
2023/10/28 12:57:30;;;;;;;0.88;0.40;;;;;;;;;;5006281;28;20086;-82
2023/10/28 12:59:55;;;;;;;1.80;0.50;;;;;;;;;;4979015;28;20022;-80
2023/10/28 13:02:58;;;;;;;2.20;0.60;;;;;;;;;;4999668;28;20033;-82
2023/10/28 13:05:23;;;;;;;3.88;0.75;;;;;;;;;;4996845;28;20030;-75
2023/10/28 13:07:48;;;;;;;4.25;0.52;;;;;;;;;;4994598;28;20120;-75
2023/10/28 13:10:13;;;;;;;1.30;0.57;;;;;;;;;;4994852;28;20018;-75
2023/10/28 13:12:39;;;;;;;2.63;0.70;;;;;;;;;;4995008;28;20389;-75
2023/10/28 13:15:07;;;;;;;2.47;0.90;;;;;;;;;;4994680;28;20022;-74
2023/10/28 13:17:32;;;;;;;2.17;0.75;;;;;;;;;;4994732;28;20105;-74
2023/10/28 13:19:58;;;;;;;1.17;0.60;;;;;;;;;;4994483;28;20165;-74
2023/10/28 13:22:23;;;;;;;2.42;0.50;;;;;;;;;;4994518;28;20473;-74
2023/10/28 13:24:48;;;;;;;1.27;0.68;;;;;;;;;;4994557;28;20033;-73
2023/10/28 13:27:15;;;;;;;1.88;0.60;;;;;;;;;;4994254;28;20041;-74
2023/10/28 13:29:40;;;;;;;1.83;0.60;;;;;;;;;;4994307;28;20444;-74
2023/10/28 13:32:08;;;;;;;1.70;0.70;;;;;;;;;;4994469;28;20022;-74
2023/10/28 13:34:33;;;;;;;2.92;0.82;;;;;;;;;;4993965;28;20072;-74
2023/10/28 13:36:58;;;;;;;1.27;0.60;;;;;;;;;;4994203;28;20022;-74
2023/10/28 13:39:26;;;;;;;2.17;0.60;;;;;;;;;;4994097;28;20030;-74
2023/10/28 13:41:51;;;;;;;2.13;0.60;;;;;;;;;;4976202;28;20026;-74
2023/10/28 13:44:17;;;;;;;2.08;0.70;;;;;;;;;;4976711;28;20123;-74
2023/10/28 13:46:42;;;;;;;1.13;0.73;;;;;;;;;;4994110;28;20022;-74
2023/10/28 13:49:07;;;;;;;5.95;0.75;;;;;;;;;;4993973;28;20026;-75
2023/10/28 13:51:34;;;;;;;1.58;0.70;;;;;;;;;;4993942;28;20030;-74
2023/10/28 13:53:59;;;;;;;3.88;0.77;;;;;;;;;;4976513;28;20025;-74
2023/10/28 13:56:24;;;;;;;2.08;0.60;;;;;;;;;;4993740;28;20034;-74
2023/10/28 13:58:50;;;;;;;0.82;0.55;;;;;;;;;;4994369;28;20014;-74
2023/10/28 14:01:15;;;;;;;1.60;0.68;;;;;;;;;;4993995;28;20026;-74
2023/10/28 14:03:40;;;;;;;1.20;0.80;;;;;;;;;;4995644;28;20385;-79
2023/10/28 14:06:11;;;;;;;6.13;1.23;;;;;;;;;;4978973;28;20366;-78
2023/10/28 14:08:38;;;;;;;1.58;0.70;;;;;;;;;;4997919;28;20034;-77
2023/10/28 14:11:03;;;;;;;4.85;0.88;;;;;;;;;;4979421;28;20100;-77
2023/10/28 14:13:30;;;;;;;1.67;0.65;;;;;;;;;;4979685;28;20022;-78
2023/10/28 14:15:55;;;;;;;1.27;0.63;;;;;;;;;;4997401;28;20026;-77
2023/10/28 14:18:21;;;;;;;1.00;0.55;;;;;;;;;;4996969;28;20474;-77
2023/10/28 14:20:46;;;;;;;3.90;0.70;;;;;;;;;;4997115;28;20408;-77
2023/10/28 14:23:11;;;;;;;1.02;0.80;;;;;;;;;;4977855;28;20030;-78
2023/10/28 14:25:36;;;;;;;2.43;0.77;;;;;;;;;;4979701;28;20030;-77
2023/10/28 14:28:02;;;;;;;2.33;1.00;;;;;;;;;;4998452;28;20343;-78
2023/10/28 14:30:28;;;;;;;1.80;0.52;;;;;;;;;;4981731;28;20109;-78
2023/10/28 14:32:56;;;;;;;2.67;0.77;;;;;;;;;;4999145;28;20057;-78
2023/10/28 14:35:21;;;;;;;1.20;0.68;;;;;;;;;;4998908;28;20053;-78
2023/10/28 14:37:46;;;;;;;2.50;0.82;;;;;;;;;;4998852;28;20469;-79